This demonstration page uses our WeatherBlox Daily Observations layout. Learn more.

Hourly Observations for May 30, 2018

Temp ( °F °C ) Dew Point ( °F °C ) Humidity (%) Winds ( mph kmh ) Pressure ( in mb ) Visibility ( mi km ) Precip ( " mm )
12:04 am 00:04 Mostly Cloudy with Light Rain 65 18.3 63 17.2 93 93 WNW 7 11 29.77 1008 6 9.65604 0.02 0.508
12:54 am 00:54 Cloudy with Light Rain 65 18.3 64 17.8 97 97 N 9 15 29.72 1007 7 11.26538 0.05 1.27
1:54 am 01:54 Partly Cloudy 64 17.8 63 17.2 96 96 ENE 5 7 29.68 1005 10 16.0934 0.01 0.254
2:54 am 02:54 Partly Cloudy 65 18.3 63 17.2 93 93 WSW 5 7 29.7 1006 10 16.0934 0 0
3:54 am 03:54 Cloudy 65 18.3 63 17.2 93 93 WSW 7 11 29.69 1005 9 14.48406 0 0.0254
4:54 am 04:54 Cloudy 64 17.8 61 16.1 90 90 WSW 10 17 29.7 1006 10 16.0934 0 0
5:54 am 05:54 Cloudy 63 17.2 60 15.6 90 90 W 5 7 29.7 1006 10 16.0934 0 0
6:54 am 06:54 Sunny 62 16.7 59 15 90 90 SSW 3 6 29.7 1006 10 16.0934 0 0
7:54 am 07:54 Sunny 65 18.3 61 16.1 87 87 S 6 9 29.71 1006 10 16.0934 0 0
8:54 am 08:54 Sunny 69 20.6 62 16.7 78 78 SW 10 17 29.7 1006 10 16.0934 0 0
9:54 am 09:54 Mostly Sunny 73 22.8 63 17.2 71 71 SW 12 19 29.69 1005 10 16.0934 0 0
10:54 am 10:54 Mostly Sunny 76 24.4 64 17.8 67 67 WSW 14 22 29.68 1005 10 16.0934 0 0
11:54 am 11:54 Sunny 79 26.1 63 17.2 58 58 SW 8 13 29.66 1005 10 16.0934 0 0
12:54 pm 12:54 Mostly Sunny 81 27.2 60 15.6 49 49 W 12 19 29.66 1004 10 16.0934 0 0
1:54 pm 13:54 Sunny 82 27.8 61 16.1 49 49 W 10 17 29.65 1004 10 16.0934 0 0
3:09 pm 15:09 Sunny 85 29.4 60 15.6 43 43 W 14 22 29.59 1002 10 16.0934 0 0
3:54 pm 15:54 Partly Cloudy 85 29.4 60 15.6 43 43 W 13 20 29.63 1003 10 16.0934 0 0
4:54 pm 16:54 Partly Cloudy 86 30 60 15.6 42 42 WNW 15 24 29.61 1003 10 16.0934 0 0
5:54 pm 17:54 Mostly Sunny 86 30 60 15.6 42 42 W 12 19 29.6 1003 10 16.0934 0 0
6:54 pm 18:54 Sunny 86 30 59 15 40 40 W 10 17 29.59 1002 10 16.0934 0 0
7:54 pm 19:54 Sunny 85 29.4 59 15 42 42 W 7 11 29.6 1002 10 16.0934 0 0
8:54 pm 20:54 Clear 81 27.2 62 16.7 53 53 SW 7 11 29.61 1003 10 16.0934 0 0
9:54 pm 21:54 Clear 78 25.6 63 17.2 60 60 SW 6 9 29.63 1003 10 16.0934 0 0
10:54 pm 22:54 Clear 77 25 63 17.2 62 62 WSW 6 9 29.65 1004 10 16.0934 0 0
11:54 pm 23:54 Clear 75 23.9 63 17.2 66 66 SW 8 13 29.65 1004 10 16.0934 0 0

Powered by AerisWeather